Logo Brunsvigian Airlines

Die löwenstarke Airline aus Braunschweig

Charts auf der Seite von VATEUD

LFMN 042330Z 31005KT 9999 SCT014 23/20 Q1014 NOSIG

flugnummerleerzeichenankunftleerzeichenplanmaessig
ABS202__LA_ROCHELLE______09doppelpunkt00
ABS605__BRAUNSCHWEIG_____15doppelpunkt15
ABS206__LONDON_CITY______17doppelpunkt30

flugnummerleerzeichenankunftleerzeichenplanmaessig
ABS201__ENGADIN__________08doppelpunkt20
ABS604__BRAUNSCHWEIG_____14doppelpunkt45
ABS205__BRAUNSCHWEIG_____16doppelpunkt40

Kontakt   Impressum

Valid HTML 4.01 Transitional CSS ist valide!